sensor_id;sensor_type;location;lat;lon;timestamp;P1;durP1;ratioP1;P2;durP2;ratioP2
36689;SDS011;22676;51.120;3.702;2023-07-20T00:01:03;4.40;;;1.92;;
36689;SDS011;22676;51.120;3.702;2023-07-20T00:03:29;3.40;;;1.70;;
36689;SDS011;22676;51.120;3.702;2023-07-20T00:05:54;2.78;;;1.60;;
36689;SDS011;22676;51.120;3.702;2023-07-20T00:08:20;5.10;;;1.45;;
36689;SDS011;22676;51.120;3.702;2023-07-20T00:10:46;2.85;;;1.52;;
36689;SDS011;22676;51.120;3.702;2023-07-20T00:13:11;3.72;;;1.73;;
36689;SDS011;22676;51.120;3.702;2023-07-20T00:15:37;5.68;;;1.73;;
36689;SDS011;22676;51.120;3.702;2023-07-20T00:18:06;3.63;;;1.58;;
36689;SDS011;22676;51.120;3.702;2023-07-20T00:20:31;5.43;;;1.77;;
36689;SDS011;22676;51.120;3.702;2023-07-20T00:22:57;3.88;;;1.73;;
36689;SDS011;22676;51.120;3.702;2023-07-20T00:25:26;3.83;;;1.67;;
36689;SDS011;22676;51.120;3.702;2023-07-20T00:27:52;2.63;;;1.63;;
36689;SDS011;22676;51.120;3.702;2023-07-20T00:30:18;4.30;;;1.85;;
36689;SDS011;22676;51.120;3.702;2023-07-20T00:32:44;3.63;;;1.50;;
36689;SDS011;22676;51.120;3.702;2023-07-20T00:35:09;2.42;;;1.50;;
36689;SDS011;22676;51.120;3.702;2023-07-20T00:37:36;3.20;;;1.70;;
36689;SDS011;22676;51.120;3.702;2023-07-20T00:40:02;6.38;;;1.70;;
36689;SDS011;22676;51.120;3.702;2023-07-20T00:42:29;3.53;;;1.65;;
36689;SDS011;22676;51.120;3.702;2023-07-20T00:44:55;4.07;;;1.63;;
36689;SDS011;22676;51.120;3.702;2023-07-20T00:47:21;1.75;;;1.30;;
36689;SDS011;22676;51.120;3.702;2023-07-20T00:49:47;2.08;;;1.42;;
36689;SDS011;22676;51.120;3.702;2023-07-20T00:52:13;3.40;;;1.80;;
36689;SDS011;22676;51.120;3.702;2023-07-20T00:54:40;1.77;;;1.27;;
36689;SDS011;22676;51.120;3.702;2023-07-20T00:57:06;1.90;;;1.40;;
36689;SDS011;22676;51.120;3.702;2023-07-20T00:59:33;1.83;;;1.42;;
36689;SDS011;22676;51.120;3.702;2023-07-20T01:01:59;1.80;;;1.20;;
36689;SDS011;22676;51.120;3.702;2023-07-20T01:04:25;2.65;;;1.58;;
36689;SDS011;22676;51.120;3.702;2023-07-20T01:09:33;1.95;;;1.35;;
36689;SDS011;22676;51.120;3.702;2023-07-20T01:15:10;1.42;;;1.20;;
36689;SDS011;22676;51.120;3.702;2023-07-20T01:17:37;1.27;;;1.08;;
36689;SDS011;22676;51.120;3.702;2023-07-20T01:20:02;2.42;;;1.42;;
36689;SDS011;22676;51.120;3.702;2023-07-20T01:22:38;1.45;;;1.20;;
36689;SDS011;22676;51.120;3.702;2023-07-20T01:33:00;1.67;;;1.30;;
36689;SDS011;22676;51.120;3.702;2023-07-20T01:35:28;1.45;;;1.10;;
36689;SDS011;22676;51.120;3.702;2023-07-20T01:37:55;1.52;;;1.00;;
36689;SDS011;22676;51.120;3.702;2023-07-20T01:40:23;2.00;;;1.35;;
36689;SDS011;22676;51.120;3.702;2023-07-20T01:42:50;1.45;;;1.20;;
36689;SDS011;22676;51.120;3.702;2023-07-20T01:45:17;1.52;;;1.10;;
36689;SDS011;22676;51.120;3.702;2023-07-20T01:47:43;2.28;;;1.27;;
36689;SDS011;22676;51.120;3.702;2023-07-20T01:50:08;2.08;;;1.27;;
36689;SDS011;22676;51.120;3.702;2023-07-20T01:52:34;1.58;;;1.10;;
36689;SDS011;22676;51.120;3.702;2023-07-20T01:55:00;1.75;;;1.27;;
36689;SDS011;22676;51.120;3.702;2023-07-20T01:57:26;1.40;;;1.20;;
36689;SDS011;22676;51.120;3.702;2023-07-20T01:59:52;1.48;;;1.23;;
36689;SDS011;22676;51.120;3.702;2023-07-20T02:02:17;2.92;;;1.10;;
36689;SDS011;22676;51.120;3.702;2023-07-20T02:04:43;1.30;;;1.00;;
36689;SDS011;22676;51.120;3.702;2023-07-20T02:07:09;1.58;;;1.40;;
36689;SDS011;22676;51.120;3.702;2023-07-20T02:09:34;1.77;;;0.95;;
36689;SDS011;22676;51.120;3.702;2023-07-20T02:12:00;1.63;;;1.00;;
36689;SDS011;22676;51.120;3.702;2023-07-20T02:14:26;1.67;;;1.23;;
36689;SDS011;22676;51.120;3.702;2023-07-20T02:16:51;1.30;;;1.20;;
36689;SDS011;22676;51.120;3.702;2023-07-20T02:19:20;1.30;;;0.90;;
36689;SDS011;22676;51.120;3.702;2023-07-20T02:21:46;2.58;;;1.10;;
36689;SDS011;22676;51.120;3.702;2023-07-20T02:24:12;1.10;;;0.93;;
36689;SDS011;22676;51.120;3.702;2023-07-20T02:26:38;1.95;;;1.10;;
36689;SDS011;22676;51.120;3.702;2023-07-20T02:29:03;1.33;;;1.13;;
36689;SDS011;22676;51.120;3.702;2023-07-20T02:31:32;1.27;;;1.10;;
36689;SDS011;22676;51.120;3.702;2023-07-20T02:33:58;0.75;;;0.70;;
36689;SDS011;22676;51.120;3.702;2023-07-20T02:36:24;1.08;;;0.98;;
36689;SDS011;22676;51.120;3.702;2023-07-20T02:38:50;1.35;;;1.10;;
36689;SDS011;22676;51.120;3.702;2023-07-20T02:41:15;1.33;;;1.00;;
36689;SDS011;22676;51.120;3.702;2023-07-20T02:43:41;1.90;;;1.20;;
36689;SDS011;22676;51.120;3.702;2023-07-20T02:46:07;1.45;;;1.10;;
36689;SDS011;22676;51.120;3.702;2023-07-20T02:48:32;1.30;;;1.20;;
36689;SDS011;22676;51.120;3.702;2023-07-20T02:50:58;0.98;;;0.98;;
36689;SDS011;22676;51.120;3.702;2023-07-20T02:53:23;1.25;;;1.02;;
36689;SDS011;22676;51.120;3.702;2023-07-20T02:55:49;1.25;;;0.90;;
36689;SDS011;22676;51.120;3.702;2023-07-20T02:58:15;1.58;;;1.23;;
36689;SDS011;22676;51.120;3.702;2023-07-20T03:00:42;1.20;;;1.10;;
36689;SDS011;22676;51.120;3.702;2023-07-20T03:03:08;1.38;;;0.95;;
36689;SDS011;22676;51.120;3.702;2023-07-20T03:05:34;1.45;;;1.00;;
36689;SDS011;22676;51.120;3.702;2023-07-20T03:08:03;1.73;;;1.10;;
36689;SDS011;22676;51.120;3.702;2023-07-20T03:10:31;0.80;;;0.80;;
36689;SDS011;22676;51.120;3.702;2023-07-20T03:12:57;3.30;;;1.02;;
36689;SDS011;22676;51.120;3.702;2023-07-20T03:15:22;1.10;;;1.00;;
36689;SDS011;22676;51.120;3.702;2023-07-20T03:17:48;1.20;;;0.90;;
36689;SDS011;22676;51.120;3.702;2023-07-20T03:20:13;0.90;;;0.90;;
36689;SDS011;22676;51.120;3.702;2023-07-20T03:22:39;1.40;;;1.00;;
36689;SDS011;22676;51.120;3.702;2023-07-20T03:25:05;1.33;;;0.95;;
36689;SDS011;22676;51.120;3.702;2023-07-20T03:27:31;0.93;;;0.80;;
36689;SDS011;22676;51.120;3.702;2023-07-20T03:29:56;1.08;;;0.98;;
36689;SDS011;22676;51.120;3.702;2023-07-20T03:32:22;1.08;;;0.98;;
36689;SDS011;22676;51.120;3.702;2023-07-20T03:34:48;1.77;;;0.93;;
36689;SDS011;22676;51.120;3.702;2023-07-20T03:37:13;0.98;;;0.70;;
36689;SDS011;22676;51.120;3.702;2023-07-20T03:39:39;1.65;;;1.00;;
36689;SDS011;22676;51.120;3.702;2023-07-20T03:42:05;1.55;;;1.23;;
36689;SDS011;22676;51.120;3.702;2023-07-20T03:44:31;2.75;;;0.90;;
36689;SDS011;22676;51.120;3.702;2023-07-20T03:46:57;0.90;;;0.90;;
36689;SDS011;22676;51.120;3.702;2023-07-20T03:49:22;1.13;;;0.70;;
36689;SDS011;22676;51.120;3.702;2023-07-20T03:51:48;1.10;;;0.90;;
36689;SDS011;22676;51.120;3.702;2023-07-20T03:54:14;0.82;;;0.82;;
36689;SDS011;22676;51.120;3.702;2023-07-20T03:56:39;1.50;;;1.10;;
36689;SDS011;22676;51.120;3.702;2023-07-20T03:59:05;1.08;;;0.75;;
36689;SDS011;22676;51.120;3.702;2023-07-20T04:01:31;1.00;;;0.90;;
36689;SDS011;22676;51.120;3.702;2023-07-20T04:04:01;1.23;;;1.00;;
36689;SDS011;22676;51.120;3.702;2023-07-20T04:06:30;1.20;;;1.10;;
36689;SDS011;22676;51.120;3.702;2023-07-20T04:08:55;0.73;;;0.73;;
36689;SDS011;22676;51.120;3.702;2023-07-20T04:11:21;1.15;;;0.82;;
36689;SDS011;22676;51.120;3.702;2023-07-20T04:13:47;1.20;;;0.80;;
36689;SDS011;22676;51.120;3.702;2023-07-20T04:16:12;1.80;;;1.35;;
36689;SDS011;22676;51.120;3.702;2023-07-20T04:18:38;3.95;;;1.77;;
36689;SDS011;22676;51.120;3.702;2023-07-20T04:21:03;2.55;;;2.35;;
36689;SDS011;22676;51.120;3.702;2023-07-20T04:23:29;4.70;;;2.83;;
36689;SDS011;22676;51.120;3.702;2023-07-20T04:25:55;6.25;;;2.78;;
36689;SDS011;22676;51.120;3.702;2023-07-20T04:28:20;3.90;;;2.72;;
36689;SDS011;22676;51.120;3.702;2023-07-20T04:30:48;3.85;;;2.75;;
36689;SDS011;22676;51.120;3.702;2023-07-20T04:33:15;4.32;;;2.97;;
36689;SDS011;22676;51.120;3.702;2023-07-20T04:38:10;3.92;;;2.90;;
36689;SDS011;22676;51.120;3.702;2023-07-20T04:40:36;5.43;;;3.10;;
36689;SDS011;22676;51.120;3.702;2023-07-20T04:43:01;3.55;;;2.83;;
36689;SDS011;22676;51.120;3.702;2023-07-20T04:45:28;5.88;;;2.80;;
36689;SDS011;22676;51.120;3.702;2023-07-20T04:47:53;4.68;;;2.88;;
36689;SDS011;22676;51.120;3.702;2023-07-20T04:50:19;6.68;;;2.35;;
36689;SDS011;22676;51.120;3.702;2023-07-20T04:52:45;4.97;;;3.20;;
36689;SDS011;22676;51.120;3.702;2023-07-20T04:55:11;6.03;;;3.30;;
36689;SDS011;22676;51.120;3.702;2023-07-20T04:57:37;6.18;;;3.40;;
36689;SDS011;22676;51.120;3.702;2023-07-20T05:00:02;4.30;;;3.28;;
36689;SDS011;22676;51.120;3.702;2023-07-20T05:02:28;4.45;;;3.15;;
36689;SDS011;22676;51.120;3.702;2023-07-20T05:04:54;5.05;;;3.70;;
36689;SDS011;22676;51.120;3.702;2023-07-20T05:07:20;5.78;;;3.75;;
36689;SDS011;22676;51.120;3.702;2023-07-20T05:09:45;4.90;;;3.38;;
36689;SDS011;22676;51.120;3.702;2023-07-20T05:12:11;7.47;;;3.55;;
36689;SDS011;22676;51.120;3.702;2023-07-20T05:14:37;4.97;;;3.28;;
36689;SDS011;22676;51.120;3.702;2023-07-20T05:17:03;5.55;;;3.40;;
36689;SDS011;22676;51.120;3.702;2023-07-20T05:19:29;6.72;;;3.65;;
36689;SDS011;22676;51.120;3.702;2023-07-20T05:21:55;5.03;;;3.22;;
36689;SDS011;22676;51.120;3.702;2023-07-20T05:24:21;5.07;;;3.38;;
36689;SDS011;22676;51.120;3.702;2023-07-20T05:26:47;6.63;;;3.67;;
36689;SDS011;22676;51.120;3.702;2023-07-20T05:29:13;3.95;;;3.30;;
36689;SDS011;22676;51.120;3.702;2023-07-20T05:31:38;6.03;;;3.55;;
36689;SDS011;22676;51.120;3.702;2023-07-20T05:34:04;4.03;;;3.25;;
36689;SDS011;22676;51.120;3.702;2023-07-20T05:36:30;3.78;;;2.80;;
36689;SDS011;22676;51.120;3.702;2023-07-20T05:38:56;10.23;;;3.13;;
36689;SDS011;22676;51.120;3.702;2023-07-20T05:41:21;5.63;;;3.35;;
36689;SDS011;22676;51.120;3.702;2023-07-20T05:43:47;4.43;;;3.20;;
36689;SDS011;22676;51.120;3.702;2023-07-20T05:46:13;5.05;;;2.78;;
36689;SDS011;22676;51.120;3.702;2023-07-20T05:48:39;8.70;;;3.33;;
36689;SDS011;22676;51.120;3.702;2023-07-20T05:51:05;11.35;;;3.63;;
36689;SDS011;22676;51.120;3.702;2023-07-20T05:53:30;3.88;;;2.90;;
36689;SDS011;22676;51.120;3.702;2023-07-20T05:55:56;3.10;;;2.53;;
36689;SDS011;22676;51.120;3.702;2023-07-20T05:58:22;9.57;;;2.80;;
36689;SDS011;22676;51.120;3.702;2023-07-20T06:00:48;3.30;;;2.67;;
36689;SDS011;22676;51.120;3.702;2023-07-20T06:03:14;6.03;;;3.13;;
36689;SDS011;22676;51.120;3.702;2023-07-20T06:05:41;5.15;;;2.63;;
36689;SDS011;22676;51.120;3.702;2023-07-20T06:08:07;5.68;;;2.58;;
36689;SDS011;22676;51.120;3.702;2023-07-20T06:10:33;3.88;;;2.60;;
36689;SDS011;22676;51.120;3.702;2023-07-20T06:12:59;4.22;;;2.45;;
36689;SDS011;22676;51.120;3.702;2023-07-20T06:15:26;3.10;;;2.40;;
36689;SDS011;22676;51.120;3.702;2023-07-20T06:17:53;3.00;;;2.30;;
36689;SDS011;22676;51.120;3.702;2023-07-20T06:20:20;2.88;;;2.35;;
36689;SDS011;22676;51.120;3.702;2023-07-20T06:22:46;2.92;;;1.92;;
36689;SDS011;22676;51.120;3.702;2023-07-20T06:25:12;3.70;;;1.77;;
36689;SDS011;22676;51.120;3.702;2023-07-20T06:27:38;2.72;;;1.90;;
36689;SDS011;22676;51.120;3.702;2023-07-20T06:30:03;2.78;;;2.10;;
36689;SDS011;22676;51.120;3.702;2023-07-20T06:32:29;2.90;;;2.00;;
36689;SDS011;22676;51.120;3.702;2023-07-20T06:34:55;3.05;;;1.80;;
36689;SDS011;22676;51.120;3.702;2023-07-20T06:37:20;1.80;;;1.45;;
36689;SDS011;22676;51.120;3.702;2023-07-20T06:39:46;1.60;;;1.33;;
36689;SDS011;22676;51.120;3.702;2023-07-20T06:42:12;1.40;;;1.30;;
36689;SDS011;22676;51.120;3.702;2023-07-20T06:44:37;3.45;;;1.60;;
36689;SDS011;22676;51.120;3.702;2023-07-20T06:47:04;2.13;;;1.20;;
36689;SDS011;22676;51.120;3.702;2023-07-20T06:49:29;1.45;;;1.05;;
36689;SDS011;22676;51.120;3.702;2023-07-20T06:51:55;1.25;;;1.10;;
36689;SDS011;22676;51.120;3.702;2023-07-20T06:54:21;1.33;;;0.90;;
36689;SDS011;22676;51.120;3.702;2023-07-20T06:56:47;1.55;;;0.90;;
36689;SDS011;22676;51.120;3.702;2023-07-20T06:59:13;0.80;;;0.73;;
36689;SDS011;22676;51.120;3.702;2023-07-20T07:01:38;1.05;;;0.70;;
36689;SDS011;22676;51.120;3.702;2023-07-20T07:04:04;0.70;;;0.70;;
36689;SDS011;22676;51.120;3.702;2023-07-20T07:06:30;0.70;;;0.50;;
36689;SDS011;22676;51.120;3.702;2023-07-20T07:08:56;1.17;;;0.55;;
36689;SDS011;22676;51.120;3.702;2023-07-20T07:11:22;3.55;;;0.65;;
36689;SDS011;22676;51.120;3.702;2023-07-20T07:13:48;0.70;;;0.70;;
36689;SDS011;22676;51.120;3.702;2023-07-20T07:16:16;6.97;;;0.63;;
36689;SDS011;22676;51.120;3.702;2023-07-20T07:18:46;0.50;;;0.50;;
36689;SDS011;22676;51.120;3.702;2023-07-20T07:21:13;0.95;;;0.50;;
36689;SDS011;22676;51.120;3.702;2023-07-20T07:23:38;3.13;;;0.45;;
36689;SDS011;22676;51.120;3.702;2023-07-20T07:26:05;0.63;;;0.30;;
36689;SDS011;22676;51.120;3.702;2023-07-20T07:28:31;0.38;;;0.32;;
36689;SDS011;22676;51.120;3.702;2023-07-20T07:30:57;1.75;;;0.47;;
36689;SDS011;22676;51.120;3.702;2023-07-20T07:33:23;3.45;;;0.47;;
36689;SDS011;22676;51.120;3.702;2023-07-20T07:35:49;0.43;;;0.38;;
36689;SDS011;22676;51.120;3.702;2023-07-20T07:38:16;0.45;;;0.30;;
36689;SDS011;22676;51.120;3.702;2023-07-20T07:40:42;0.70;;;0.32;;
36689;SDS011;22676;51.120;3.702;2023-07-20T07:43:07;0.40;;;0.40;;
36689;SDS011;22676;51.120;3.702;2023-07-20T07:45:34;0.80;;;0.50;;
36689;SDS011;22676;51.120;3.702;2023-07-20T07:48:02;0.88;;;0.32;;
36689;SDS011;22676;51.120;3.702;2023-07-20T07:50:29;0.35;;;0.30;;
36689;SDS011;22676;51.120;3.702;2023-07-20T07:52:54;0.40;;;0.40;;
36689;SDS011;22676;51.120;3.702;2023-07-20T07:55:20;0.52;;;0.35;;
36689;SDS011;22676;51.120;3.702;2023-07-20T07:57:46;0.68;;;0.40;;
36689;SDS011;22676;51.120;3.702;2023-07-20T08:00:12;1.13;;;0.30;;
36689;SDS011;22676;51.120;3.702;2023-07-20T08:02:42;0.73;;;0.38;;
36689;SDS011;22676;51.120;3.702;2023-07-20T08:05:08;0.60;;;0.40;;
36689;SDS011;22676;51.120;3.702;2023-07-20T08:07:35;0.50;;;0.35;;
36689;SDS011;22676;51.120;3.702;2023-07-20T08:10:03;1.00;;;0.30;;
36689;SDS011;22676;51.120;3.702;2023-07-20T08:12:30;0.40;;;0.40;;
36689;SDS011;22676;51.120;3.702;2023-07-20T08:14:56;0.50;;;0.50;;
36689;SDS011;22676;51.120;3.702;2023-07-20T08:17:21;1.00;;;0.60;;
36689;SDS011;22676;51.120;3.702;2023-07-20T08:19:47;1.10;;;0.65;;
36689;SDS011;22676;51.120;3.702;2023-07-20T08:22:13;0.75;;;0.50;;
36689;SDS011;22676;51.120;3.702;2023-07-20T08:24:39;0.88;;;0.43;;
36689;SDS011;22676;51.120;3.702;2023-07-20T08:27:05;0.68;;;0.40;;
36689;SDS011;22676;51.120;3.702;2023-07-20T08:29:31;0.30;;;0.30;;
36689;SDS011;22676;51.120;3.702;2023-07-20T08:31:57;0.93;;;0.50;;
36689;SDS011;22676;51.120;3.702;2023-07-20T08:34:23;0.38;;;0.38;;
36689;SDS011;22676;51.120;3.702;2023-07-20T08:36:48;0.98;;;0.65;;
36689;SDS011;22676;51.120;3.702;2023-07-20T08:39:14;2.17;;;0.65;;
36689;SDS011;22676;51.120;3.702;2023-07-20T08:41:40;0.50;;;0.50;;
36689;SDS011;22676;51.120;3.702;2023-07-20T08:44:08;1.27;;;0.80;;
36689;SDS011;22676;51.120;3.702;2023-07-20T08:46:35;0.52;;;0.40;;
36689;SDS011;22676;51.120;3.702;2023-07-20T08:49:03;1.70;;;0.75;;
36689;SDS011;22676;51.120;3.702;2023-07-20T08:51:29;0.43;;;0.43;;
36689;SDS011;22676;51.120;3.702;2023-07-20T08:53:55;0.60;;;0.60;;
36689;SDS011;22676;51.120;3.702;2023-07-20T08:56:22;3.13;;;0.40;;
36689;SDS011;22676;51.120;3.702;2023-07-20T08:58:51;0.80;;;0.40;;
36689;SDS011;22676;51.120;3.702;2023-07-20T09:01:19;2.45;;;0.70;;
36689;SDS011;22676;51.120;3.702;2023-07-20T09:03:45;2.40;;;0.50;;
36689;SDS011;22676;51.120;3.702;2023-07-20T09:06:12;1.80;;;0.45;;
36689;SDS011;22676;51.120;3.702;2023-07-20T09:08:41;2.85;;;0.50;;
36689;SDS011;22676;51.120;3.702;2023-07-20T09:11:08;1.20;;;0.50;;
36689;SDS011;22676;51.120;3.702;2023-07-20T09:13:38;0.52;;;0.52;;
36689;SDS011;22676;51.120;3.702;2023-07-20T09:16:04;0.93;;;0.50;;
36689;SDS011;22676;51.120;3.702;2023-07-20T09:18:33;2.33;;;0.60;;
36689;SDS011;22676;51.120;3.702;2023-07-20T09:23:32;1.17;;;0.85;;
36689;SDS011;22676;51.120;3.702;2023-07-20T09:25:59;1.38;;;0.70;;
36689;SDS011;22676;51.120;3.702;2023-07-20T09:28:25;1.85;;;0.77;;
36689;SDS011;22676;51.120;3.702;2023-07-20T09:30:51;1.50;;;0.50;;
36689;SDS011;22676;51.120;3.702;2023-07-20T09:33:23;0.30;;;0.30;;
36689;SDS011;22676;51.120;3.702;2023-07-20T09:35:49;3.25;;;0.70;;
36689;SDS011;22676;51.120;3.702;2023-07-20T09:38:15;1.00;;;0.40;;
36689;SDS011;22676;51.120;3.702;2023-07-20T09:40:41;1.63;;;0.50;;
36689;SDS011;22676;51.120;3.702;2023-07-20T09:43:08;0.57;;;0.50;;
36689;SDS011;22676;51.120;3.702;2023-07-20T09:45:34;1.17;;;0.60;;
36689;SDS011;22676;51.120;3.702;2023-07-20T09:48:04;0.40;;;0.40;;
36689;SDS011;22676;51.120;3.702;2023-07-20T09:50:31;3.65;;;0.50;;
36689;SDS011;22676;51.120;3.702;2023-07-20T09:53:07;1.35;;;0.50;;
36689;SDS011;22676;51.120;3.702;2023-07-20T09:55:37;0.57;;;0.40;;
36689;SDS011;22676;51.120;3.702;2023-07-20T09:58:04;1.00;;;0.60;;
36689;SDS011;22676;51.120;3.702;2023-07-20T10:00:32;1.08;;;0.57;;
36689;SDS011;22676;51.120;3.702;2023-07-20T10:03:00;1.10;;;0.60;;
36689;SDS011;22676;51.120;3.702;2023-07-20T10:05:30;1.45;;;0.57;;
36689;SDS011;22676;51.120;3.702;2023-07-20T10:08:00;1.00;;;0.57;;
36689;SDS011;22676;51.120;3.702;2023-07-20T10:10:27;2.40;;;0.75;;
36689;SDS011;22676;51.120;3.702;2023-07-20T10:12:55;3.85;;;0.55;;
36689;SDS011;22676;51.120;3.702;2023-07-20T10:15:30;2.65;;;0.70;;
36689;SDS011;22676;51.120;3.702;2023-07-20T10:18:09;4.35;;;0.70;;
36689;SDS011;22676;51.120;3.702;2023-07-20T10:20:50;0.68;;;0.40;;
36689;SDS011;22676;51.120;3.702;2023-07-20T10:23:18;1.13;;;0.68;;
36689;SDS011;22676;51.120;3.702;2023-07-20T10:25:44;3.88;;;1.00;;
36689;SDS011;22676;51.120;3.702;2023-07-20T10:28:11;4.82;;;0.98;;
36689;SDS011;22676;51.120;3.702;2023-07-20T10:30:37;2.28;;;0.93;;
36689;SDS011;22676;51.120;3.702;2023-07-20T10:33:04;2.58;;;1.60;;
36689;SDS011;22676;51.120;3.702;2023-07-20T10:35:31;0.63;;;0.63;;
36689;SDS011;22676;51.120;3.702;2023-07-20T10:38:15;1.63;;;0.80;;
36689;SDS011;22676;51.120;3.702;2023-07-20T10:40:41;2.58;;;1.00;;
36689;SDS011;22676;51.120;3.702;2023-07-20T10:43:07;0.93;;;0.70;;
36689;SDS011;22676;51.120;3.702;2023-07-20T10:48:21;1.05;;;0.70;;
36689;SDS011;22676;51.120;3.702;2023-07-20T10:53:48;1.80;;;0.68;;
36689;SDS011;22676;51.120;3.702;2023-07-20T10:56:15;0.50;;;0.50;;
36689;SDS011;22676;51.120;3.702;2023-07-20T10:58:45;0.50;;;0.50;;
36689;SDS011;22676;51.120;3.702;2023-07-20T11:01:15;1.02;;;0.68;;
36689;SDS011;22676;51.120;3.702;2023-07-20T11:03:42;1.10;;;0.70;;
36689;SDS011;22676;51.120;3.702;2023-07-20T11:11:28;2.47;;;0.45;;
36689;SDS011;22676;51.120;3.702;2023-07-20T11:16:38;1.92;;;0.90;;
36689;SDS011;22676;51.120;3.702;2023-07-20T11:19:06;3.85;;;0.70;;
36689;SDS011;22676;51.120;3.702;2023-07-20T11:21:40;1.23;;;0.80;;
36689;SDS011;22676;51.120;3.702;2023-07-20T11:24:07;0.80;;;0.63;;
36689;SDS011;22676;51.120;3.702;2023-07-20T11:26:43;1.27;;;0.80;;
36689;SDS011;22676;51.120;3.702;2023-07-20T11:29:11;1.27;;;0.80;;
36689;SDS011;22676;51.120;3.702;2023-07-20T11:31:38;1.13;;;0.50;;
36689;SDS011;22676;51.120;3.702;2023-07-20T11:34:05;0.90;;;0.68;;
36689;SDS011;22676;51.120;3.702;2023-07-20T11:36:31;0.75;;;0.50;;
36689;SDS011;22676;51.120;3.702;2023-07-20T11:38:58;1.63;;;0.68;;
36689;SDS011;22676;51.120;3.702;2023-07-20T11:41:25;7.18;;;0.95;;
36689;SDS011;22676;51.120;3.702;2023-07-20T11:43:51;1.73;;;0.70;;
36689;SDS011;22676;51.120;3.702;2023-07-20T11:46:18;0.77;;;0.70;;
36689;SDS011;22676;51.120;3.702;2023-07-20T11:48:44;0.75;;;0.60;;
36689;SDS011;22676;51.120;3.702;2023-07-20T11:51:16;1.60;;;0.80;;
36689;SDS011;22676;51.120;3.702;2023-07-20T11:53:43;1.77;;;0.80;;
36689;SDS011;22676;51.120;3.702;2023-07-20T11:56:11;1.02;;;0.70;;
36689;SDS011;22676;51.120;3.702;2023-07-20T11:58:41;0.50;;;0.50;;
36689;SDS011;22676;51.120;3.702;2023-07-20T12:01:09;0.60;;;0.60;;
36689;SDS011;22676;51.120;3.702;2023-07-20T12:03:36;1.05;;;0.68;;
36689;SDS011;22676;51.120;3.702;2023-07-20T12:06:08;1.48;;;0.80;;
36689;SDS011;22676;51.120;3.702;2023-07-20T12:08:34;1.80;;;0.80;;
36689;SDS011;22676;51.120;3.702;2023-07-20T12:11:00;0.73;;;0.60;;
36689;SDS011;22676;51.120;3.702;2023-07-20T12:13:35;1.33;;;0.85;;
36689;SDS011;22676;51.120;3.702;2023-07-20T12:16:12;1.20;;;0.60;;
36689;SDS011;22676;51.120;3.702;2023-07-20T12:18:45;2.03;;;0.60;;
36689;SDS011;22676;51.120;3.702;2023-07-20T12:21:11;0.70;;;0.60;;
36689;SDS011;22676;51.120;3.702;2023-07-20T12:23:37;1.48;;;0.60;;
36689;SDS011;22676;51.120;3.702;2023-07-20T12:26:07;2.67;;;0.60;;
36689;SDS011;22676;51.120;3.702;2023-07-20T12:28:40;1.10;;;0.80;;
36689;SDS011;22676;51.120;3.702;2023-07-20T12:31:07;1.73;;;0.70;;
36689;SDS011;22676;51.120;3.702;2023-07-20T12:33:33;2.85;;;0.90;;
36689;SDS011;22676;51.120;3.702;2023-07-20T12:35:59;1.10;;;0.73;;
36689;SDS011;22676;51.120;3.702;2023-07-20T12:38:26;1.35;;;0.60;;
36689;SDS011;22676;51.120;3.702;2023-07-20T12:40:53;1.20;;;0.77;;
36689;SDS011;22676;51.120;3.702;2023-07-20T12:43:22;1.63;;;1.00;;
36689;SDS011;22676;51.120;3.702;2023-07-20T12:45:47;1.95;;;0.70;;
36689;SDS011;22676;51.120;3.702;2023-07-20T12:48:13;1.45;;;0.90;;
36689;SDS011;22676;51.120;3.702;2023-07-20T12:50:39;1.15;;;0.68;;
36689;SDS011;22676;51.120;3.702;2023-07-20T12:53:05;1.98;;;0.73;;
36689;SDS011;22676;51.120;3.702;2023-07-20T12:55:31;1.30;;;0.77;;
36689;SDS011;22676;51.120;3.702;2023-07-20T12:57:57;0.68;;;0.60;;
36689;SDS011;22676;51.120;3.702;2023-07-20T13:00:22;0.88;;;0.80;;
36689;SDS011;22676;51.120;3.702;2023-07-20T13:02:49;1.23;;;0.80;;
36689;SDS011;22676;51.120;3.702;2023-07-20T13:05:15;1.10;;;0.70;;
36689;SDS011;22676;51.120;3.702;2023-07-20T13:07:41;1.30;;;0.73;;
36689;SDS011;22676;51.120;3.702;2023-07-20T13:10:08;1.45;;;0.70;;
36689;SDS011;22676;51.120;3.702;2023-07-20T13:12:35;1.08;;;0.60;;
36689;SDS011;22676;51.120;3.702;2023-07-20T13:15:02;1.25;;;0.70;;
36689;SDS011;22676;51.120;3.702;2023-07-20T13:17:31;8.27;;;1.52;;
36689;SDS011;22676;51.120;3.702;2023-07-20T13:20:00;2.08;;;0.70;;
36689;SDS011;22676;51.120;3.702;2023-07-20T13:22:26;2.22;;;0.90;;
36689;SDS011;22676;51.120;3.702;2023-07-20T13:24:52;3.53;;;1.20;;
36689;SDS011;22676;51.120;3.702;2023-07-20T13:27:18;4.55;;;1.10;;
36689;SDS011;22676;51.120;3.702;2023-07-20T13:29:44;8.38;;;1.13;;
36689;SDS011;22676;51.120;3.702;2023-07-20T13:32:12;2.30;;;1.13;;
36689;SDS011;22676;51.120;3.702;2023-07-20T13:34:40;2.25;;;1.02;;
36689;SDS011;22676;51.120;3.702;2023-07-20T13:37:06;1.48;;;1.00;;
36689;SDS011;22676;51.120;3.702;2023-07-20T13:39:31;1.58;;;1.00;;
36689;SDS011;22676;51.120;3.702;2023-07-20T13:41:57;2.10;;;1.10;;
36689;SDS011;22676;51.120;3.702;2023-07-20T13:44:23;2.67;;;1.20;;
36689;SDS011;22676;51.120;3.702;2023-07-20T13:46:49;1.13;;;1.08;;
36689;SDS011;22676;51.120;3.702;2023-07-20T13:49:15;1.23;;;0.90;;
36689;SDS011;22676;51.120;3.702;2023-07-20T13:51:43;2.58;;;1.33;;
36689;SDS011;22676;51.120;3.702;2023-07-20T13:54:09;1.48;;;1.10;;
36689;SDS011;22676;51.120;3.702;2023-07-20T13:56:35;6.25;;;1.20;;
36689;SDS011;22676;51.120;3.702;2023-07-20T13:59:01;1.33;;;1.20;;
36689;SDS011;22676;51.120;3.702;2023-07-20T14:01:26;1.80;;;1.40;;
36689;SDS011;22676;51.120;3.702;2023-07-20T14:03:53;2.92;;;1.27;;
36689;SDS011;22676;51.120;3.702;2023-07-20T14:06:20;2.63;;;1.40;;
36689;SDS011;22676;51.120;3.702;2023-07-20T14:08:46;3.08;;;1.45;;
36689;SDS011;22676;51.120;3.702;2023-07-20T14:11:13;2.45;;;1.60;;
36689;SDS011;22676;51.120;3.702;2023-07-20T14:13:39;3.13;;;1.70;;
36689;SDS011;22676;51.120;3.702;2023-07-20T14:16:05;2.63;;;1.63;;
36689;SDS011;22676;51.120;3.702;2023-07-20T14:18:31;4.78;;;1.42;;
36689;SDS011;22676;51.120;3.702;2023-07-20T14:20:57;5.70;;;1.90;;
36689;SDS011;22676;51.120;3.702;2023-07-20T14:23:22;3.35;;;1.67;;
36689;SDS011;22676;51.120;3.702;2023-07-20T14:25:48;2.08;;;1.60;;
36689;SDS011;22676;51.120;3.702;2023-07-20T14:28:14;1.67;;;1.50;;
36689;SDS011;22676;51.120;3.702;2023-07-20T14:30:39;2.13;;;1.42;;
36689;SDS011;22676;51.120;3.702;2023-07-20T14:33:06;2.97;;;1.27;;
36689;SDS011;22676;51.120;3.702;2023-07-20T14:35:31;1.95;;;1.20;;
36689;SDS011;22676;51.120;3.702;2023-07-20T14:37:57;1.88;;;1.30;;
36689;SDS011;22676;51.120;3.702;2023-07-20T14:40:23;1.45;;;1.25;;
36689;SDS011;22676;51.120;3.702;2023-07-20T14:42:49;2.50;;;1.45;;
36689;SDS011;22676;51.120;3.702;2023-07-20T14:45:14;2.70;;;1.50;;
36689;SDS011;22676;51.120;3.702;2023-07-20T14:47:40;1.52;;;1.40;;
36689;SDS011;22676;51.120;3.702;2023-07-20T14:50:06;1.50;;;1.23;;
36689;SDS011;22676;51.120;3.702;2023-07-20T14:52:32;1.23;;;0.90;;
36689;SDS011;22676;51.120;3.702;2023-07-20T14:54:58;2.75;;;1.58;;
36689;SDS011;22676;51.120;3.702;2023-07-20T14:57:23;1.42;;;1.23;;
36689;SDS011;22676;51.120;3.702;2023-07-20T14:59:49;2.15;;;1.40;;
36689;SDS011;22676;51.120;3.702;2023-07-20T15:02:15;2.15;;;1.42;;
36689;SDS011;22676;51.120;3.702;2023-07-20T15:04:47;1.50;;;1.40;;
36689;SDS011;22676;51.120;3.702;2023-07-20T15:07:15;1.48;;;1.38;;
36689;SDS011;22676;51.120;3.702;2023-07-20T15:09:46;1.65;;;1.45;;
36689;SDS011;22676;51.120;3.702;2023-07-20T15:12:12;1.27;;;1.17;;
36689;SDS011;22676;51.120;3.702;2023-07-20T15:14:41;2.22;;;1.60;;
36689;SDS011;22676;51.120;3.702;2023-07-20T15:17:08;1.90;;;1.52;;